Time;durP1;ratioP1;P1;durP2;ratioP2;P2;SDS_P1;SDS_P2;PMS_P1;PMS_P2;Temp;Humidity;BMP_temperature;BMP_pressure;BME280_temperature;BME280_humidity;BME280_pressure;Samples;Min_cycle;Max_cycle;Signal;HPM_P1;HPM_P2
2022/11/18 00:01:11;;;;;;;3.22;2.70;;;8.40;99.90;;;;;;4988053;28;20129;-92
2022/11/18 00:03:38;;;;;;;3.63;2.80;;;8.50;99.90;;;;;;4993378;28;20488;-94
2022/11/18 00:06:06;;;;;;;4.03;2.92;;;8.50;99.90;;;;;;4993569;28;20038;-91
2022/11/18 00:08:31;;;;;;;2.90;2.60;;;8.50;99.90;;;;;;4995203;28;20081;-93
2022/11/18 00:10:57;;;;;;;3.53;2.92;;;8.50;99.90;;;;;;4993632;28;20030;-91
2022/11/18 00:16:09;;;;;;;3.80;2.63;;;8.50;99.90;;;;;;4997682;28;20559;-91
2022/11/18 00:18:36;;;;;;;3.90;2.92;;;8.50;99.90;;;;;;4994441;28;20026;-92
2022/11/18 00:21:06;;;;;;;3.53;2.70;;;8.50;99.90;;;;;;4989321;28;20037;-92
2022/11/18 00:23:32;;;;;;;4.65;2.90;;;8.50;99.90;;;;;;4988521;28;20018;-91
2022/11/18 00:26:05;;;;;;;3.85;2.30;;;8.50;99.90;;;;;;4985098;28;20027;-90
2022/11/18 00:28:31;;;;;;;2.58;2.30;;;8.50;99.90;;;;;;4986584;28;20078;-90
2022/11/18 00:31:06;;;;;;;2.53;2.33;;;8.50;99.90;;;;;;4987253;28;20026;-92
2022/11/18 00:33:33;;;;;;;4.40;2.25;;;8.50;99.90;;;;;;4989363;28;20015;-92
2022/11/18 00:35:58;;;;;;;4.80;2.40;;;8.50;99.90;;;;;;4987785;28;20023;-92
2022/11/18 00:38:25;;;;;;;2.90;2.38;;;8.50;99.90;;;;;;5021948;28;20108;-90
2022/11/18 00:41:13;;;;;;;3.45;2.50;;;8.50;99.90;;;;;;4987962;28;20026;-92
2022/11/18 00:43:39;;;;;;;4.20;2.92;;;8.50;99.90;;;;;;4994503;28;20037;-91
2022/11/18 00:46:07;;;;;;;4.78;2.83;;;8.40;99.90;;;;;;4996449;28;20558;-91
2022/11/18 00:48:33;;;;;;;3.80;2.45;;;8.50;99.90;;;;;;4994075;28;20049;-91
2022/11/18 00:51:12;;;;;;;3.42;2.72;;;8.40;99.90;;;;;;4997064;28;20476;-92
2022/11/18 00:53:38;;;;;;;3.28;2.60;;;8.40;99.90;;;;;;4994721;28;20550;-92
2022/11/18 00:56:04;;;;;;;4.82;2.38;;;8.40;99.90;;;;;;4995337;28;20030;-91
2022/11/18 00:58:30;;;;;;;5.95;3.03;;;8.40;99.90;;;;;;4996130;28;20403;-92
2022/11/18 01:00:56;;;;;;;4.45;2.90;;;8.40;99.90;;;;;;4992237;28;20026;-91
2022/11/18 01:03:23;;;;;;;3.58;2.65;;;8.40;99.90;;;;;;4995027;28;20029;-91
2022/11/18 01:05:48;;;;;;;4.10;3.03;;;8.40;99.90;;;;;;4996371;28;20106;-92
2022/11/18 01:08:14;;;;;;;9.18;3.90;;;8.40;99.90;;;;;;4993684;28;20026;-91
2022/11/18 01:10:40;;;;;;;4.65;2.90;;;8.40;99.90;;;;;;4996260;28;20439;-92
2022/11/18 01:13:19;;;;;;;3.70;3.28;;;8.40;99.90;;;;;;4992649;28;20550;-92
2022/11/18 01:15:54;;;;;;;3.20;2.88;;;8.40;99.90;;;;;;4985943;28;20100;-91
2022/11/18 01:18:22;;;;;;;4.28;2.90;;;8.40;99.90;;;;;;4973291;28;20034;-91
2022/11/18 01:20:48;;;;;;;7.55;3.30;;;8.40;99.90;;;;;;4974660;28;20026;-91
2022/11/18 01:23:15;;;;;;;4.32;3.03;;;8.50;99.90;;;;;;4972306;28;20095;-92
2022/11/18 01:25:42;;;;;;;4.65;3.53;;;8.50;99.90;;;;;;4977556;28;20093;-94
2022/11/18 01:28:08;;;;;;;4.82;3.25;;;8.50;99.90;;;;;;4977291;28;20023;-94
2022/11/18 01:30:36;;;;;;;4.18;3.25;;;8.50;99.90;;;;;;4973933;28;20033;-93
2022/11/18 01:33:02;;;;;;;3.85;3.13;;;8.40;99.90;;;;;;4968678;28;20038;-90
2022/11/18 01:35:32;;;;;;;3.53;3.10;;;8.40;99.90;;;;;;4968547;28;20038;-93
2022/11/18 01:37:58;;;;;;;4.53;3.00;;;8.40;99.90;;;;;;4969236;28;20023;-92
2022/11/18 01:40:26;;;;;;;4.93;3.03;;;8.40;99.90;;;;;;4972847;28;20424;-95
2022/11/18 01:42:51;;;;;;;4.07;3.00;;;8.40;99.90;;;;;;4969669;28;20114;-93
2022/11/18 01:45:25;;;;;;;3.08;2.63;;;8.30;99.90;;;;;;4971320;28;20057;-91
2022/11/18 01:48:16;;;;;;;6.20;4.03;;;8.30;99.90;;;;;;4971142;28;20419;-93
2022/11/18 01:50:51;;;;;;;4.03;2.88;;;8.30;99.90;;;;;;4960248;28;20408;-92
2022/11/18 01:53:24;;;;;;;7.55;3.08;;;8.30;99.90;;;;;;4979250;28;20022;-92
2022/11/18 01:55:53;;;;;;;4.75;3.20;;;8.30;99.90;;;;;;4967494;28;20039;-91
2022/11/18 01:58:28;;;;;;;4.35;2.88;;;8.30;99.90;;;;;;4969674;28;20027;-93
2022/11/18 02:00:54;;;;;;;3.85;2.58;;;8.30;99.90;;;;;;4968832;28;20023;-92
2022/11/18 02:03:20;;;;;;;6.05;2.72;;;8.20;99.90;;;;;;4969536;28;20089;-91
2022/11/18 02:05:48;;;;;;;2.97;2.60;;;8.30;99.90;;;;;;4967581;28;20029;-92
2022/11/18 02:08:14;;;;;;;4.85;3.00;;;8.30;99.90;;;;;;4967527;28;20041;-92
2022/11/18 02:10:40;;;;;;;4.15;2.60;;;8.30;99.90;;;;;;4967718;28;20015;-91
2022/11/18 02:13:06;;;;;;;4.43;2.63;;;8.30;99.90;;;;;;4970671;28;20050;-92
2022/11/18 02:16:00;;;;;;;4.05;2.90;;;8.30;99.90;;;;;;4969909;28;20148;-91
2022/11/18 02:18:28;;;;;;;3.53;2.53;;;8.30;99.90;;;;;;4989316;28;20158;-91
2022/11/18 02:21:20;;;;;;;3.25;2.60;;;8.30;99.90;;;;;;4967080;28;20035;-92
2022/11/18 02:24:25;;;;;;;4.32;2.53;;;8.30;99.90;;;;;;4967936;28;20499;-92
2022/11/18 02:27:07;;;;;;;3.45;2.75;;;8.30;99.90;;;;;;4967636;28;20031;-92
2022/11/18 02:29:45;;;;;;;4.68;2.78;;;8.30;99.90;;;;;;4969788;28;20030;-90
2022/11/18 02:32:22;;;;;;;6.57;2.45;;;8.30;99.90;;;;;;4966864;28;20123;-90
2022/11/18 02:34:54;;;;;;;6.65;2.90;;;8.30;99.90;;;;;;4967302;28;20030;-93
2022/11/18 02:37:34;;;;;;;3.05;2.40;;;8.30;99.90;;;;;;4987618;28;20193;-92
2022/11/18 02:40:24;;;;;;;3.83;2.88;;;8.30;99.90;;;;;;4964582;28;20018;-91
2022/11/18 02:42:59;;;;;;;5.05;2.25;;;8.30;99.90;;;;;;4988677;28;20113;-91
2022/11/18 02:45:26;;;;;;;3.85;2.05;;;8.30;99.90;;;;;;4966870;28;20031;-89
2022/11/18 02:47:54;;;;;;;2.65;2.13;;;8.30;99.90;;;;;;4966857;28;20033;-92
2022/11/18 02:50:24;;;;;;;4.18;2.20;;;8.30;99.90;;;;;;4968095;28;20587;-90
2022/11/18 02:52:55;;;;;;;6.38;2.63;;;8.30;99.90;;;;;;4986038;28;20169;-89
2022/11/18 02:55:24;;;;;;;6.60;2.63;;;8.30;99.90;;;;;;4967181;28;20038;-90
2022/11/18 02:57:51;;;;;;;7.47;2.97;;;8.30;99.90;;;;;;4968496;28;20117;-90
2022/11/18 03:00:17;;;;;;;8.13;2.72;;;8.30;99.90;;;;;;4964393;28;20141;-91
2022/11/18 03:02:45;;;;;;;5.68;2.13;;;8.30;99.90;;;;;;4965039;28;20026;-91
2022/11/18 03:05:34;;;;;;;4.47;1.77;;;8.30;99.90;;;;;;4964182;28;20110;-91
2022/11/18 03:08:10;;;;;;;7.18;2.10;;;8.30;99.90;;;;;;4966688;28;20037;-93
2022/11/18 03:10:45;;;;;;;6.53;2.00;;;8.30;99.90;;;;;;4964168;28;20030;-92
2022/11/18 03:13:17;;;;;;;7.43;2.20;;;8.30;99.90;;;;;;4966416;28;20018;-91
2022/11/18 03:16:00;;;;;;;3.97;2.20;;;8.30;99.90;;;;;;4967194;28;20046;-90
2022/11/18 03:18:28;;;;;;;4.72;2.22;;;8.30;99.90;;;;;;4964374;28;20023;-91
2022/11/18 03:21:30;;;;;;;3.50;1.90;;;8.30;99.90;;;;;;4971039;28;20034;-92
2022/11/18 03:24:08;;;;;;;3.42;1.15;;;8.30;99.90;;;;;;4949481;28;20523;-91
2022/11/18 03:27:03;;;;;;;5.00;1.60;;;8.30;99.90;;;;;;4969084;28;20480;-92
2022/11/18 03:29:34;;;;;;;3.65;1.52;;;8.30;99.90;;;;;;4966148;28;20097;-88
2022/11/18 03:32:08;;;;;;;3.38;1.40;;;8.30;99.90;;;;;;4975997;28;20034;-90
2022/11/18 03:34:39;;;;;;;3.33;1.48;;;8.30;99.90;;;;;;4969425;28;20038;-91
2022/11/18 03:37:08;;;;;;;4.68;1.63;;;8.30;99.90;;;;;;4969058;28;20054;-90
2022/11/18 03:39:38;;;;;;;4.45;1.27;;;8.30;99.90;;;;;;4986493;28;20030;-91
2022/11/18 03:42:10;;;;;;;2.03;1.08;;;8.30;99.90;;;;;;4985632;28;20019;-92
2022/11/18 03:44:39;;;;;;;2.90;0.90;;;8.30;99.90;;;;;;4967261;28;20026;-90
2022/11/18 03:47:14;;;;;;;3.72;1.40;;;8.40;99.90;;;;;;5002719;28;20027;-92
2022/11/18 03:49:49;;;;;;;3.05;1.20;;;8.40;99.90;;;;;;4968046;28;20030;-92
2022/11/18 03:52:21;;;;;;;3.05;1.50;;;8.40;99.90;;;;;;4967396;28;20026;-92
2022/11/18 03:54:49;;;;;;;4.65;1.23;;;8.40;99.90;;;;;;4970634;28;20097;-92
2022/11/18 03:57:20;;;;;;;15.50;3.70;;;8.40;99.90;;;;;;4969677;28;20019;-92
2022/11/18 04:00:05;;;;;;;4.07;1.50;;;8.50;99.90;;;;;;4970635;28;20053;-92
2022/11/18 04:02:30;;;;;;;3.85;1.40;;;8.50;99.90;;;;;;4992894;28;20097;-90
2022/11/18 04:04:58;;;;;;;10.50;1.42;;;8.50;99.90;;;;;;4969870;28;20023;-93
2022/11/18 04:07:33;;;;;;;1.50;1.00;;;8.50;99.90;;;;;;4967770;28;20127;-92
2022/11/18 04:10:19;;;;;;;1.23;1.13;;;8.50;99.90;;;;;;4975338;28;20113;-91
2022/11/18 04:12:52;;;;;;;5.50;1.10;;;8.50;99.90;;;;;;4967539;28;20391;-91
2022/11/18 04:15:19;;;;;;;2.90;0.98;;;8.50;99.90;;;;;;4963775;28;20197;-92
2022/11/18 04:17:45;;;;;;;6.05;1.20;;;8.40;99.90;;;;;;4987168;28;20054;-94
2022/11/18 04:20:20;;;;;;;2.05;0.98;;;8.40;99.90;;;;;;4969802;28;20043;-89
2022/11/18 04:22:46;;;;;;;4.57;0.88;;;8.40;99.90;;;;;;4987710;28;20472;-90
2022/11/18 04:25:13;;;;;;;1.33;0.60;;;8.40;99.90;;;;;;4972105;28;20027;-91
2022/11/18 04:27:38;;;;;;;5.18;1.13;;;8.40;99.90;;;;;;4973976;28;20058;-91
2022/11/18 04:30:05;;;;;;;3.30;0.77;;;8.40;99.90;;;;;;4969208;28;20015;-91
2022/11/18 04:32:31;;;;;;;6.72;1.58;;;8.40;99.90;;;;;;4972687;28;20110;-94
2022/11/18 04:34:57;;;;;;;9.75;1.23;;;8.30;99.90;;;;;;4971122;28;20500;-91
2022/11/18 04:37:24;;;;;;;0.65;0.60;;;8.30;99.90;;;;;;4994695;28;20416;-93
2022/11/18 04:39:49;;;;;;;5.85;1.50;;;8.30;99.90;;;;;;4973800;28;20081;-90
2022/11/18 04:42:15;;;;;;;1.50;0.73;;;8.30;99.90;;;;;;4977179;28;20023;-92
2022/11/18 04:44:40;;;;;;;2.17;0.90;;;8.30;99.90;;;;;;4976597;28;20098;-90
2022/11/18 04:47:07;;;;;;;6.05;1.65;;;8.30;99.90;;;;;;4974966;28;20015;-91
2022/11/18 04:49:33;;;;;;;7.80;1.23;;;8.30;99.90;;;;;;4974746;28;20029;-92
2022/11/18 04:52:00;;;;;;;5.03;1.00;;;8.30;99.90;;;;;;4971173;28;20043;-92
2022/11/18 04:54:26;;;;;;;2.50;1.20;;;8.30;99.90;;;;;;4970402;28;20030;-91
2022/11/18 04:56:53;;;;;;;4.32;1.00;;;8.30;99.90;;;;;;4989244;28;20045;-92
2022/11/18 04:59:22;;;;;;;2.92;0.93;;;8.30;99.90;;;;;;4971134;28;20030;-92
2022/11/18 05:01:48;;;;;;;1.58;0.70;;;8.30;99.90;;;;;;4967969;28;20109;-91
2022/11/18 05:04:18;;;;;;;2.13;0.90;;;8.30;99.90;;;;;;4971002;28;20054;-93
2022/11/18 05:06:45;;;;;;;3.50;1.23;;;8.30;99.90;;;;;;4970248;28;20058;-91
2022/11/18 05:09:10;;;;;;;3.33;0.93;;;8.30;99.90;;;;;;4966168;28;20044;-91
2022/11/18 05:14:20;;;;;;;4.43;1.00;;;8.30;99.90;;;;;;4985764;28;20518;-91
2022/11/18 05:16:46;;;;;;;3.30;1.42;;;8.30;99.90;;;;;;4969539;28;20027;-92
2022/11/18 05:19:12;;;;;;;2.50;0.70;;;8.30;99.90;;;;;;4968149;28;20030;-92
2022/11/18 05:21:37;;;;;;;4.53;1.20;;;8.30;99.90;;;;;;4967690;28;20014;-91
2022/11/18 05:24:04;;;;;;;4.03;1.08;;;8.30;99.90;;;;;;4969267;28;20018;-91
2022/11/18 05:26:29;;;;;;;4.07;1.10;;;8.30;99.90;;;;;;4968088;28;20038;-91
2022/11/18 05:28:55;;;;;;;6.63;1.13;;;8.30;99.90;;;;;;4970336;28;20076;-91
2022/11/18 05:31:21;;;;;;;2.17;0.90;;;8.30;99.90;;;;;;4969338;28;20019;-93
2022/11/18 05:33:46;;;;;;;2.85;0.80;;;8.30;99.90;;;;;;4974257;28;20544;-93
2022/11/18 05:36:15;;;;;;;3.80;0.68;;;8.30;99.90;;;;;;4972917;28;20066;-92
2022/11/18 05:38:41;;;;;;;3.40;0.90;;;8.30;99.90;;;;;;4979433;28;20041;-92
2022/11/18 05:41:07;;;;;;;5.65;1.33;;;8.30;99.90;;;;;;4967813;28;20022;-90
2022/11/18 05:43:34;;;;;;;7.22;1.20;;;8.30;99.90;;;;;;4987875;28;20056;-91
2022/11/18 05:46:01;;;;;;;1.27;0.60;;;8.30;99.90;;;;;;4970577;28;20033;-91
2022/11/18 05:48:26;;;;;;;4.63;0.95;;;8.30;99.90;;;;;;4970297;28;20473;-91
2022/11/18 05:50:53;;;;;;;3.85;0.88;;;8.30;99.90;;;;;;4967700;28;20023;-92
2022/11/18 05:53:21;;;;;;;6.68;1.70;;;8.30;99.90;;;;;;4969633;28;20149;-92
2022/11/18 05:56:00;;;;;;;2.17;0.68;;;8.30;99.90;;;;;;4968908;28;20121;-90
2022/11/18 05:58:26;;;;;;;2.75;0.85;;;8.30;99.90;;;;;;4963225;28;20484;-92
2022/11/18 06:00:54;;;;;;;10.00;1.05;;;8.30;99.90;;;;;;4993842;28;20120;-91
2022/11/18 06:03:29;;;;;;;8.75;1.15;;;8.30;99.90;;;;;;4968195;28;20030;-93
2022/11/18 06:05:57;;;;;;;3.50;1.02;;;8.30;99.90;;;;;;4966688;28;20097;-86
2022/11/18 06:08:27;;;;;;;5.20;0.90;;;8.30;99.90;;;;;;4966642;28;20030;-94
2022/11/18 06:10:54;;;;;;;5.25;1.38;;;8.30;99.90;;;;;;4967187;28;20176;-91
2022/11/18 06:13:25;;;;;;;4.63;1.20;;;8.30;99.90;;;;;;4969217;28;20042;-91
2022/11/18 06:15:51;;;;;;;6.65;1.10;;;8.30;99.90;;;;;;4990650;28;20046;-94
2022/11/18 06:18:27;;;;;;;4.32;1.02;;;8.30;99.90;;;;;;5018546;28;20050;-91
2022/11/18 06:20:56;;;;;;;3.13;1.10;;;8.30;99.90;;;;;;4985538;28;20026;-92
2022/11/18 06:23:22;;;;;;;4.28;0.98;;;8.30;99.90;;;;;;4996526;28;20022;-91
2022/11/18 06:25:48;;;;;;;12.63;2.42;;;8.30;99.90;;;;;;4996467;28;20076;-90
2022/11/18 06:28:16;;;;;;;4.60;1.40;;;8.30;99.90;;;;;;4996252;28;20021;-91
2022/11/18 06:30:42;;;;;;;4.25;1.40;;;8.30;99.90;;;;;;4996429;28;20544;-92
2022/11/18 06:33:08;;;;;;;3.08;1.17;;;8.20;99.90;;;;;;4996170;28;20018;-90
2022/11/18 06:35:34;;;;;;;2.13;1.00;;;8.20;99.90;;;;;;5020982;28;20038;-92
2022/11/18 06:37:59;;;;;;;5.75;1.15;;;8.20;99.90;;;;;;4986298;28;20476;-92
2022/11/18 06:40:25;;;;;;;2.78;0.90;;;8.20;99.90;;;;;;4988675;28;20037;-93
2022/11/18 06:45:35;;;;;;;1.90;0.70;;;8.20;99.90;;;;;;5014226;28;20029;-94
2022/11/18 06:48:01;;;;;;;2.50;0.90;;;8.20;99.90;;;;;;4996427;28;20022;-94
2022/11/18 06:50:27;;;;;;;3.47;0.93;;;8.20;99.90;;;;;;4996939;28;20038;-91
2022/11/18 06:52:53;;;;;;;3.08;1.00;;;8.20;99.90;;;;;;4996676;28;20029;-90
2022/11/18 06:55:19;;;;;;;6.43;1.20;;;8.20;99.90;;;;;;4996162;28;20538;-92
2022/11/18 06:57:44;;;;;;;4.95;0.80;;;8.20;99.90;;;;;;4996097;28;20018;-93
2022/11/18 07:00:11;;;;;;;2.05;0.90;;;8.20;99.90;;;;;;4996136;28;20028;-93
2022/11/18 07:02:37;;;;;;;6.53;1.45;;;8.20;99.90;;;;;;4995860;28;20475;-92
2022/11/18 07:05:04;;;;;;;4.20;1.08;;;8.20;99.90;;;;;;4996250;28;20032;-91
2022/11/18 07:07:30;;;;;;;5.57;1.00;;;8.10;99.90;;;;;;4980559;28;20033;-91
2022/11/18 07:09:55;;;;;;;4.00;0.80;;;8.10;99.90;;;;;;5004430;28;20030;-93
2022/11/18 07:12:21;;;;;;;3.00;1.10;;;8.10;99.90;;;;;;4987327;28;20459;-93
2022/11/18 07:14:47;;;;;;;2.83;1.00;;;8.10;99.90;;;;;;4945156;28;1192842;-93
2022/11/18 07:17:12;;;;;;;6.10;1.20;;;8.10;99.90;;;;;;5021364;28;20026;-92
2022/11/18 07:19:39;;;;;;;1.42;0.82;;;8.10;99.90;;;;;;4996539;28;20029;-92
2022/11/18 07:22:06;;;;;;;5.85;1.20;;;8.10;99.90;;;;;;4986354;28;20105;-93
2022/11/18 07:24:32;;;;;;;2.70;0.57;;;8.10;99.90;;;;;;4977394;28;20035;-93
2022/11/18 07:26:58;;;;;;;7.20;1.48;;;8.10;99.90;;;;;;4977465;28;20023;-91
2022/11/18 07:29:24;;;;;;;5.65;1.42;;;8.10;99.90;;;;;;4977105;28;20054;-93
2022/11/18 07:31:49;;;;;;;4.55;1.05;;;8.10;99.90;;;;;;4976406;28;20118;-93
2022/11/18 07:34:15;;;;;;;4.65;0.90;;;8.10;99.90;;;;;;4993549;28;20447;-92
2022/11/18 07:36:42;;;;;;;4.10;0.95;;;8.10;99.90;;;;;;4977294;28;20033;-93
2022/11/18 07:39:07;;;;;;;5.20;0.90;;;8.10;99.90;;;;;;4978246;28;20034;-93
2022/11/18 07:41:34;;;;;;;6.47;1.17;;;8.10;99.90;;;;;;4980648;28;20081;-88
2022/11/18 07:44:02;;;;;;;3.42;0.88;;;8.10;99.90;;;;;;4991639;28;20042;-93
2022/11/18 07:46:30;;;;;;;6.45;1.10;;;8.10;99.90;;;;;;4977123;28;20234;-93
2022/11/18 07:48:57;;;;;;;6.22;0.95;;;8.10;99.90;;;;;;5012279;28;20121;-92
2022/11/18 07:51:26;;;;;;;3.90;0.85;;;8.00;99.90;;;;;;4979840;28;20027;-94
2022/11/18 07:53:51;;;;;;;9.43;1.05;;;8.10;99.90;;;;;;4981143;28;20026;-90
2022/11/18 07:56:18;;;;;;;5.60;0.93;;;8.10;99.90;;;;;;4994321;28;20046;-91
2022/11/18 07:58:44;;;;;;;3.35;0.88;;;8.00;99.90;;;;;;4994105;28;20030;-94
2022/11/18 08:01:12;;;;;;;2.17;0.77;;;8.00;99.90;;;;;;4977455;28;20041;-92
2022/11/18 08:03:38;;;;;;;4.68;0.77;;;8.10;99.90;;;;;;4996812;28;20026;-89
2022/11/18 08:06:05;;;;;;;6.57;0.75;;;8.00;99.90;;;;;;4996327;28;20024;-91
2022/11/18 08:08:31;;;;;;;4.72;0.93;;;8.10;99.90;;;;;;5002925;28;20037;-92
2022/11/18 08:10:58;;;;;;;7.90;1.90;;;8.10;99.90;;;;;;4999836;28;20484;-91
2022/11/18 08:13:25;;;;;;;4.32;0.80;;;8.10;99.90;;;;;;4999665;28;20030;-93
2022/11/18 08:15:51;;;;;;;5.15;0.90;;;8.10;99.90;;;;;;4999120;28;20081;-93
2022/11/18 08:18:17;;;;;;;3.15;1.20;;;8.10;99.90;;;;;;4994579;28;20038;-94
2022/11/18 08:20:44;;;;;;;2.72;0.50;;;8.10;99.90;;;;;;5017605;28;20034;-92
2022/11/18 08:23:10;;;;;;;3.15;0.90;;;8.10;99.90;;;;;;5000457;28;20410;-93
2022/11/18 08:25:36;;;;;;;4.75;0.77;;;8.10;99.90;;;;;;5005373;28;20025;-91
2022/11/18 08:28:01;;;;;;;4.68;0.60;;;8.10;99.90;;;;;;4990860;28;20026;-94
2022/11/18 08:30:27;;;;;;;6.32;0.80;;;8.10;99.90;;;;;;4995608;28;20053;-93
2022/11/18 08:32:52;;;;;;;6.70;1.52;;;8.10;99.90;;;;;;4996483;28;20026;-92
2022/11/18 08:35:18;;;;;;;5.97;0.82;;;8.10;99.90;;;;;;4997728;28;20030;-92
2022/11/18 08:37:44;;;;;;;5.85;0.88;;;8.20;99.90;;;;;;5000614;28;20025;-92
2022/11/18 08:40:10;;;;;;;2.72;0.60;;;8.20;99.90;;;;;;4999780;28;20113;-94
2022/11/18 08:42:36;;;;;;;4.90;0.90;;;8.20;99.90;;;;;;4999355;28;20022;-92
2022/11/18 08:45:07;;;;;;;7.88;1.10;;;8.20;99.90;;;;;;4999648;28;20029;-93
2022/11/18 08:47:33;;;;;;;2.92;0.88;;;8.20;99.90;;;;;;4994773;28;20022;-92
2022/11/18 08:49:59;;;;;;;1.60;0.77;;;8.20;99.90;;;;;;4989935;28;20058;-93
2022/11/18 08:52:25;;;;;;;5.28;0.68;;;8.20;99.90;;;;;;5008465;28;20030;-94
2022/11/18 08:54:50;;;;;;;2.67;0.45;;;8.20;99.90;;;;;;5021313;28;20093;-92
2022/11/18 08:57:16;;;;;;;6.15;0.77;;;8.30;99.90;;;;;;4999896;28;20404;-94
2022/11/18 08:59:42;;;;;;;0.82;0.40;;;8.30;99.90;;;;;;4999753;28;20341;-94
2022/11/18 09:02:16;;;;;;;4.15;0.60;;;8.30;99.90;;;;;;4999235;28;20025;-92
2022/11/18 09:04:41;;;;;;;5.28;0.70;;;8.40;99.90;;;;;;5012809;28;20061;-92
2022/11/18 09:07:07;;;;;;;4.85;0.85;;;8.40;99.90;;;;;;4998194;28;20065;-93
2022/11/18 09:09:33;;;;;;;4.15;1.60;;;8.40;99.90;;;;;;4997957;28;20030;-93
2022/11/18 09:11:58;;;;;;;4.15;0.80;;;8.40;99.90;;;;;;5013204;28;20419;-95
2022/11/18 09:14:24;;;;;;;2.92;0.65;;;8.40;99.90;;;;;;4997824;28;20077;-95
2022/11/18 09:16:50;;;;;;;4.07;0.75;;;8.40;99.90;;;;;;5030631;28;20050;-91
2022/11/18 09:19:16;;;;;;;8.07;0.80;;;8.40;99.90;;;;;;5030704;28;20033;-92
2022/11/18 09:21:42;;;;;;;2.75;0.60;;;8.40;99.90;;;;;;4998046;28;20087;-93
2022/11/18 09:24:09;;;;;;;4.65;0.68;;;8.50;99.90;;;;;;4998051;28;20022;-94
2022/11/18 09:26:35;;;;;;;4.40;1.33;;;8.50;99.90;;;;;;4997874;28;20018;-93
2022/11/18 09:29:01;;;;;;;6.22;0.88;;;8.50;99.90;;;;;;5014105;28;20022;-93
2022/11/18 09:31:27;;;;;;;4.60;0.98;;;8.60;99.90;;;;;;4998060;28;20061;-93
2022/11/18 09:33:52;;;;;;;7.10;0.80;;;8.60;99.90;;;;;;4997926;28;20029;-92
2022/11/18 09:36:21;;;;;;;6.55;0.80;;;8.70;99.90;;;;;;5031163;28;20033;-92
2022/11/18 09:38:47;;;;;;;7.28;2.22;;;8.70;99.90;;;;;;5031163;28;20026;-92
2022/11/18 09:41:50;;;;;;;10.40;0.98;;;8.80;99.90;;;;;;4998599;28;20025;-93
2022/11/18 09:44:16;;;;;;;5.35;0.50;;;8.80;99.90;;;;;;5003715;28;20037;-93
2022/11/18 09:47:13;;;;;;;3.10;0.73;;;8.80;99.90;;;;;;5045746;28;20085;-92
2022/11/18 09:49:43;;;;;;;6.43;0.82;;;8.80;99.90;;;;;;5011683;28;20126;-92
2022/11/18 09:52:30;;;;;;;3.50;0.55;;;8.80;99.90;;;;;;4997646;28;20169;-93
2022/11/18 09:54:57;;;;;;;4.22;1.40;;;8.80;99.90;;;;;;5032564;28;20045;-93
2022/11/18 09:57:27;;;;;;;5.80;0.82;;;8.80;99.90;;;;;;5000950;28;20018;-90
2022/11/18 09:59:53;;;;;;;5.53;0.80;;;8.80;99.90;;;;;;5015718;28;20018;-92
2022/11/18 10:02:34;;;;;;;5.20;1.33;;;8.90;99.90;;;;;;5005848;28;20121;-90
2022/11/18 10:05:17;;;;;;;3.85;0.75;;;8.90;99.90;;;;;;5030597;28;20057;-92
2022/11/18 10:08:04;;;;;;;3.58;1.02;;;9.00;99.90;;;;;;5007735;28;20216;-91
2022/11/18 10:10:55;;;;;;;5.85;0.50;;;9.00;99.90;;;;;;5020497;28;20097;-91
2022/11/18 10:13:35;;;;;;;;;;;9.00;99.90;;;;;;5014988;28;20529;-93
2022/11/18 10:16:42;;;;;;;3.25;0.43;;;9.00;99.90;;;;;;4998040;28;19964;-95
2022/11/18 10:19:37;;;;;;;5.20;0.80;;;9.00;99.90;;;;;;4927055;29;20036;-95
2022/11/18 10:22:30;;;;;;;5.60;0.50;;;9.00;99.90;;;;;;4921453;29;20143;-92
2022/11/18 10:24:59;;;;;;;2.58;0.40;;;9.10;99.90;;;;;;4942787;29;20042;-93
2022/11/18 10:27:38;;;;;;;6.30;0.70;;;9.30;99.90;;;;;;4934756;29;20048;-92
2022/11/18 10:30:21;;;;;;;5.15;0.60;;;9.50;99.90;;;;;;4935513;29;20124;-94
2022/11/18 10:32:58;;;;;;;2.40;0.50;;;9.70;99.90;;;;;;4934518;29;20118;-93
2022/11/18 10:35:34;;;;;;;5.75;1.02;;;9.80;99.90;;;;;;4934385;29;20481;-94
2022/11/18 10:38:02;;;;;;;6.03;1.13;;;9.80;99.90;;;;;;4935400;29;20028;-95
2022/11/18 10:40:30;;;;;;;4.70;0.63;;;9.90;99.90;;;;;;4944411;28;20031;-94
2022/11/18 10:42:56;;;;;;;4.30;1.13;;;9.90;99.90;;;;;;4936317;29;20031;-93
2022/11/18 10:45:21;;;;;;;5.85;1.67;;;9.90;99.90;;;;;;4936677;29;20043;-93
2022/11/18 10:48:05;;;;;;;2.72;0.55;;;10.00;99.90;;;;;;4953061;28;20155;-94
2022/11/18 10:50:34;;;;;;;3.00;0.63;;;10.10;99.90;;;;;;4948713;29;20036;-93
2022/11/18 10:53:00;;;;;;;2.60;1.27;;;10.20;99.90;;;;;;4939150;29;20068;-96
2022/11/18 10:55:27;;;;;;;1.60;0.28;;;10.30;99.90;;;;;;4959168;28;20045;-91
2022/11/18 10:57:56;;;;;;;2.97;0.60;;;10.30;99.90;;;;;;5029316;28;20121;-92
2022/11/18 11:00:59;;;;;;;2.13;0.47;;;10.20;99.90;;;;;;4996028;28;20030;-91
2022/11/18 11:03:32;;;;;;;1.90;0.40;;;10.20;99.90;;;;;;4989796;28;20038;-93
2022/11/18 11:06:24;;;;;;;1.45;0.95;;;10.10;99.90;;;;;;4996388;28;20033;-93
2022/11/18 11:08:56;;;;;;;3.95;0.60;;;10.20;99.90;;;;;;5010820;28;20014;-93
2022/11/18 11:11:29;;;;;;;6.70;0.85;;;10.20;99.90;;;;;;4996441;28;20030;-93
2022/11/18 11:14:04;;;;;;;3.28;0.45;;;10.30;99.90;;;;;;4995128;28;20105;-92
2022/11/18 11:16:35;;;;;;;1.45;0.32;;;10.20;99.90;;;;;;5028160;28;20080;-93
2022/11/18 11:19:03;;;;;;;2.25;0.40;;;10.20;99.90;;;;;;5000508;28;20068;-93
2022/11/18 11:21:29;;;;;;;2.25;0.20;;;10.10;99.90;;;;;;5003650;28;20046;-93
2022/11/18 11:23:55;;;;;;;1.08;0.38;;;10.10;99.90;;;;;;5006769;28;20017;-94
2022/11/18 11:26:36;;;;;;;2.33;0.20;;;10.30;99.90;;;;;;5001912;28;20040;-93
2022/11/18 11:29:18;;;;;;;;;;;10.40;99.90;;;;;;5013988;28;20034;-94
2022/11/18 11:32:18;;;;;;;0.30;0.20;;;10.50;99.90;;;;;;5005785;28;19909;-93
2022/11/18 11:35:13;;;;;;;2.97;0.50;;;10.40;99.90;;;;;;5004323;28;20041;-94
2022/11/18 11:37:56;;;;;;;3.22;0.70;;;10.30;99.90;;;;;;5006428;28;20021;-93
2022/11/18 11:40:22;;;;;;;2.92;0.43;;;10.40;99.90;;;;;;5012237;28;20034;-95
2022/11/18 11:43:03;;;;;;;1.02;0.52;;;10.60;99.90;;;;;;5008789;28;20533;-93
2022/11/18 11:45:46;;;;;;;2.40;0.52;;;11.10;99.90;;;;;;5035860;28;20071;-94
2022/11/18 11:48:18;;;;;;;1.42;0.38;;;11.60;99.90;;;;;;5014311;28;20022;-96
2022/11/18 11:51:06;;;;;;;2.70;0.40;;;12.10;99.90;;;;;;5003349;28;20080;-94
2022/11/18 11:53:50;;;;;;;3.03;0.40;;;12.20;99.90;;;;;;5003719;28;20025;-93
2022/11/18 11:56:40;;;;;;;3.50;0.73;;;12.10;99.90;;;;;;5020124;28;20176;-90
2022/11/18 11:59:31;;;;;;;1.67;0.40;;;11.90;99.90;;;;;;4995700;28;20021;-93
2022/11/18 12:02:23;;;;;;;0.85;0.30;;;11.70;99.90;;;;;;5029571;28;20084;-94
2022/11/18 12:04:50;;;;;;;2.72;0.57;;;11.40;99.90;;;;;;4995547;28;20467;-92
2022/11/18 12:07:55;;;;;;;1.45;0.73;;;11.20;99.90;;;;;;5026235;28;20391;-91
2022/11/18 12:10:35;;;;;;;3.00;0.73;;;10.90;99.90;;;;;;4994254;28;20116;-91
2022/11/18 12:13:35;;;;;;;4.50;0.63;;;10.70;99.90;;;;;;4981781;28;20038;-93
2022/11/18 12:16:19;;;;;;;4.88;1.45;;;10.50;99.90;;;;;;4992088;28;20406;-95
2022/11/18 12:19:02;;;;;;;3.65;0.85;;;10.30;99.90;;;;;;5000162;28;20125;-93
2022/11/18 12:21:45;;;;;;;6.50;1.70;;;10.20;99.90;;;;;;4999680;28;20356;-92
2022/11/18 12:24:29;;;;;;;4.18;1.20;;;10.10;99.90;;;;;;5032555;28;20013;-94
2022/11/18 12:26:59;;;;;;;4.43;1.00;;;10.10;99.90;;;;;;5016572;28;20085;-91
2022/11/18 12:29:50;;;;;;;7.03;0.85;;;10.20;99.90;;;;;;4999607;28;20029;-91
2022/11/18 12:32:41;;;;;;;5.03;0.65;;;10.20;99.90;;;;;;4995803;28;20030;-91
2022/11/18 12:35:12;;;;;;;2.63;1.48;;;10.20;99.90;;;;;;4999199;28;20034;-90
2022/11/18 12:37:57;;;;;;;3.00;0.50;;;10.20;99.90;;;;;;5031778;28;20030;-93
2022/11/18 12:40:41;;;;;;;1.92;0.50;;;10.10;99.90;;;;;;4998799;28;20712;-89
2022/11/18 12:46:29;;;;;;;0.20;0.20;;;10.10;99.90;;;;;;5014231;28;20092;-94
2022/11/18 12:48:56;;;;;;;1.75;0.30;;;10.00;99.90;;;;;;4999531;28;20024;-95
2022/11/18 12:51:23;;;;;;;3.53;0.32;;;10.00;99.90;;;;;;4996338;28;20057;-90
2022/11/18 12:53:51;;;;;;;0.68;0.40;;;10.00;99.90;;;;;;5007978;28;20018;-93
2022/11/18 12:56:16;;;;;;;2.90;0.77;;;10.00;99.90;;;;;;5008763;28;20026;-92
2022/11/18 12:58:46;;;;;;;1.70;0.70;;;10.00;99.90;;;;;;5007459;28;20561;-93
2022/11/18 13:01:15;;;;;;;3.42;0.77;;;10.00;99.90;;;;;;5028181;28;20033;-92
2022/11/18 13:03:41;;;;;;;3.92;0.65;;;10.00;99.90;;;;;;5009476;28;20075;-93
2022/11/18 13:06:27;;;;;;;4.35;0.90;;;10.00;99.90;;;;;;5021869;28;20021;-93
2022/11/18 13:09:01;;;;;;;3.05;0.85;;;10.00;99.90;;;;;;5020475;28;20029;-93
2022/11/18 13:11:44;;;;;;;7.55;1.10;;;9.90;99.90;;;;;;5020575;28;20032;-95
2022/11/18 13:17:53;;;;;;;7.35;0.90;;;9.90;99.90;;;;;;5037403;28;20099;-93
2022/11/18 13:20:32;;;;;;;2.38;0.73;;;9.90;99.90;;;;;;5015827;28;20036;-93
2022/11/18 13:25:49;;;;;;;5.13;1.00;;;9.90;99.90;;;;;;5025657;28;20068;-94
2022/11/18 13:28:14;;;;;;;6.18;1.45;;;9.90;99.90;;;;;;5030602;28;20018;-92
2022/11/18 13:30:58;;;;;;;5.20;1.23;;;9.90;99.90;;;;;;5011818;28;20398;-92
2022/11/18 13:33:24;;;;;;;7.75;1.50;;;10.00;99.90;;;;;;5027716;28;20050;-94
2022/11/18 13:35:50;;;;;;;8.30;1.17;;;10.00;99.90;;;;;;5008701;28;20038;-93